默认 日期 大小 文件数 浏览量 最新下载 xml
2018磁力链接相关资源由用户搜索指令自动获取,结果来源于网络,本站不存储任何资料,亦不承担任何责任,请于24小时内删除,搜索到1121606个磁力,显示前4000条数据,用时634ms。
    {"God.Friended.Me.S02E01.Joy.1080p.AMZN.WEB-DL.DDP5.1.H.264-NTb.mkv": 3188385576, "God.Friended.Me.S02E21.Miracles.1080p.AMZN.WEB-DL.DDP5.1.H.264-NTb.mkv": 3020150546, "God.Friended.Me.S02E12.BFF.REPACK.1080p.AMZN.WEB-DL.DDP5.1.H.264-NTb.mkv": 3141221281, ...
创建时间: 2025-12-15 08:56:23 大小:61.69 GB 文件数量:22 热度:0
    ... }, "03. Az.utveszto.Halalkura.2018.1080p.mHD.BluRay.x264.Hun ... AlexBox": {"Az.utveszto.Halalkura.2018.1080p.mHD.BluRay.x264.Hun ... ": 5808256876, "Az.utveszto.Halalkura.2018.1080p.mHD.BluRay.x264.Hun ... , "Minta-Az.utveszto.Halalkura.2018.1080p.mHD.BluRay.x264.Hun ...
创建时间: 2025-12-15 08:22:41 大小:14.64 GB 文件数量:9 热度:0
    ... .Huang.Tu.Gao.Tian.S01E01.2018.1080p.WEB-DL.H265.AAC ... Huang.Tu.Gao.Tian.S01E02.2018.1080p.WEB-DL.H265.AAC ... Huang.Tu.Gao.Tian.S01E03.2018.1080p.WEB-DL.H265.AAC ... Huang.Tu.Gao.Tian.S01E04.2018.1080p.WEB-DL.H265.AAC ... Huang.Tu.Gao.Tian.S01E05.2018.1080p.WEB-DL.H265.AAC ...
创建时间: 2025-12-15 08:07:32 大小:71.58 GB 文件数量:40 热度:0
    {"Yellowstone 2018 S05E12 1080p x265-ELiTE.mkv": 775363613, "Yellowstone 2018 S05E12 1080p x265-ELiTE.nfo": 6435, "Torrent Downloaded From www.Torrenting.org .txt": 86}
创建时间: 2025-12-15 08:01:56 大小:739.45 MB 文件数量:3 热度:0
    {"Scans": {"CD.jpg": 3303242, "booklet front.jpg": 4726714, "booklet inside 1.jpg": 2532851, "booklet inside 2.jpg": 3065691, "booklet inside 3.jpg": 3316835, "booklet inside 4.jpg": 4447956, "booklet inside 5.jpg": 2797372, "digipak front & back.jpg": ...
创建时间: 2025-12-14 19:53:33 大小:332.79 MB 文件数量:27 热度:0
    ... .txt": 129, "A.Childs.Voice.2018.1080p.WEBRip.x264.AAC-LAMA ... .mp4": 1421802445, "A.Childs.Voice.2018.1080p.WEBRip.x264.AAC-LAMA ... .srt": 46350, "A.Childs.Voice.2018.1080p.WEBRip.x264.AAC-LAMA ...
创建时间: 2025-12-14 19:48:35 大小:1.32 GB 文件数量:8 热度:0
    {"Remnant 13 - S01E01 - Pilot.mkv": 360517262, "Remnant 13 - S01E03 - Hunger.mkv": 322862754, "Remnant 13 - S01E02 - Sephiri.mkv": 341359527, "Remnant 13 - S01E04 - Fourteen.mkv": 356960385}
创建时间: 2025-12-14 19:43:58 大小:1.29 GB 文件数量:4 热度:0
    ... Pi13.mkv": 436901262, "Megalobox (2018) - S02E02 (Bluray-1080p AV1 ... Pi13.mkv": 380847153, "Megalobox (2018) - S02E03 (Bluray-1080p ... Pi13.mkv": 417463151, "Megalobox (2018) - S02E04 (Bluray-1080p ... Pi13.mkv": 344309244, "Megalobox (2018) - S02E05 (Bluray-1080p ...
创建时间: 2025-12-14 19:01:02 大小:5.59 GB 文件数量:13 热度:0
    {"Remnant 13 - S01E01 - Pilot.mkv": 242137476, "Remnant 13 - S01E03 - Hunger.mkv": 220669165, "Remnant 13 - S01E02 - Sephiri.mkv": 217908971, "Remnant 13 - S01E04 - Fourteen.mkv": 243629820}
创建时间: 2025-12-14 18:57:28 大小:881.52 MB 文件数量:4 热度:0
    {"Primal.Rage.2018.1080p.WEBRip.AAC.x264.RoSub-F1✰.mkv": 1820194774, "Primal.Rage.2018.1080p.WEBRip.AAC.x264.RoSub-F1✰.nfo": 1936, "Primal.Rage.2018.1080p.WEBRip.AAC.x264.RoSub-F1✰.srt": 51278}
创建时间: 2025-12-14 18:29:59 大小:1.7 GB 文件数量:3 热度:0
    {"F.A.Q": {"FAQ от Canek77.docx": 19307, "История обновлений.docx": 15189}, "Redist": {"oalinst.exe": 809496, "dxwebsetup.exe": 288088, "vcredist_x64.exe": 5718872, "vcredist_x86.exe": 5073240, "xnafx40_redist.msi": 7054336, "XNA Framework 4.0.bat": 24, " ...
创建时间: 2025-12-14 18:15:44 大小:471.59 MB 文件数量:12 热度:0
    {"Cover.jpg": 1563578, "01 - Magic.flac": 37566900, "12 - Focus.flac": 38680326, "13 - Reload.flac": 36236191, "04 - Going On.flac": 45259755, "02 - Heartline.flac": 41265297, "03 - Brand New.flac": 35193971, "08 - I Know You.flac": 44832722, "14 - Talk to ...
创建时间: 2025-12-14 17:58:31 大小:592.84 MB 文件数量:16 热度:0
    {"Instakiller.2018.1080P-Lat.mkv": 1763942075, "Descargar Películas, Series y Animes Gratis....url": 50}
创建时间: 2025-12-14 17:04:00 大小:1.64 GB 文件数量:2 热度:0
    ... - The Master 1961-1984 [4CD] (2018) (320)": {"CD1": {"cover.jpg": 172432 ...
创建时间: 2025-12-14 16:57:01 大小:689.96 MB 文件数量:95 热度:0
    {"ZAPRASZAMY - EX-TORRENTY.ORG.html": 543, "Zapraszamy na ex-torrenty.org.url": 113, "Holmes i Watson (2018) 480p.WEB-DL.XViD.AC3-Yag.Lektor PL.avi": 1611861976}
创建时间: 2025-12-14 16:53:56 大小:1.5 GB 文件数量:3 热度:0
    {"Speed Kills 2018 1080p BluRay x264-nikt0.mkv": 4766145069, "Speed Kills 2018 1080p BluRay x264-nikt0.mkv.nfo": 749, "Torrent Downloaded From UIndex.org .txt": 129}
创建时间: 2025-12-14 16:39:57 大小:4.44 GB 文件数量:3 热度:0
    ... 나러갑니다(2018)1080p原盘Remux中 ...
创建时间: 2025-12-14 16:02:59 大小:83.41 KB 文件数量:5 热度:0
    ... .txt": 24, "Altova DiffDog Enterprise 2018 20.2.1 R2 SP1 ... .exe": 126652445, "Altova DiffDog Enterprise 2018 20.2.1 R2 SP1 ...
创建时间: 2025-12-14 15:58:41 大小:120.89 MB 文件数量:5 热度:0
    ... .Dee.The.Four.Heavenly.Kings.2018.MULTi.1080p.WEB.x264-HEADER ... .dee.the.four.heavenly.kings.2018.multi.1080p.web.x264-header ...
创建时间: 2025-12-14 15:54:40 大小:3.77 GB 文件数量:6 热度:0
    ... .url": 115, "The.Equalizer.2.2018.MULTi.1080p.BluRay.x264.DTS ...
创建时间: 2025-12-14 14:52:58 大小:14.35 GB 文件数量:5 热度:0